createdAt,value
2018-09-03T00:00:35.365Z,6.73
2018-09-03T00:03:03.946Z,6.60
2018-09-03T00:05:32.531Z,6.90
2018-09-03T00:08:01.103Z,6.10
2018-09-03T00:10:29.689Z,6.73
2018-09-03T00:12:58.248Z,6.57
2018-09-03T00:15:26.841Z,6.20
2018-09-03T00:17:55.404Z,6.37
2018-09-03T00:20:24.023Z,6.30
2018-09-03T00:22:52.600Z,6.50
2018-09-03T00:25:21.223Z,6.67
2018-09-03T00:27:49.800Z,6.23
2018-09-03T00:30:18.399Z,6.10
2018-09-03T00:32:52.296Z,6.20
2018-09-03T00:35:26.314Z,6.77
2018-09-03T00:38:00.062Z,6.70
2018-09-03T00:41:31.778Z,6.47
2018-09-03T00:44:05.741Z,6.67
2018-09-03T00:46:39.477Z,7.00
2018-09-03T00:49:08.066Z,6.20
2018-09-03T00:51:36.666Z,6.60
2018-09-03T00:54:05.323Z,6.70
2018-09-03T00:56:33.965Z,6.33
2018-09-03T00:59:02.548Z,6.10
2018-09-03T01:01:31.139Z,7.00
2018-09-03T01:03:59.733Z,6.70
2018-09-03T01:06:28.348Z,6.70
2018-09-03T01:08:56.926Z,7.00
2018-09-03T01:11:26.493Z,6.77
2018-09-03T01:13:56.194Z,6.37
2018-09-03T01:16:24.881Z,5.80
2018-09-03T01:18:55.812Z,7.13
2018-09-03T01:21:25.283Z,6.20
2018-09-03T01:23:54.273Z,7.00
2018-09-03T01:26:22.835Z,6.30
2018-09-03T01:28:51.464Z,6.37
2018-09-03T01:31:21.623Z,6.13
2018-09-03T01:33:52.005Z,6.20
2018-09-03T01:36:20.990Z,6.70
2018-09-03T01:38:49.616Z,6.43
2018-09-03T01:41:19.015Z,6.90
2018-09-03T01:43:48.145Z,6.57
2018-09-03T01:46:16.721Z,6.30
2018-09-03T01:48:45.315Z,6.00
2018-09-03T01:51:13.889Z,7.13
2018-09-03T01:53:42.481Z,6.37
2018-09-03T01:56:11.061Z,6.53
2018-09-03T01:58:39.637Z,6.30
2018-09-03T02:01:08.218Z,6.27
2018-09-03T02:03:36.794Z,6.20
2018-09-03T02:06:05.395Z,6.60
2018-09-03T02:08:34.016Z,5.90
2018-09-03T02:11:02.589Z,6.90
2018-09-03T02:13:32.457Z,5.90
2018-09-03T02:16:01.015Z,6.00
2018-09-03T02:18:29.584Z,6.07
2018-09-03T02:20:58.214Z,5.93
2018-09-03T02:23:26.796Z,6.30
2018-09-03T02:25:55.385Z,5.43
2018-09-03T02:28:23.989Z,6.33
2018-09-03T02:30:52.576Z,6.60
2018-09-03T02:33:21.179Z,6.00
2018-09-03T02:35:49.761Z,5.77
2018-09-03T02:38:18.383Z,5.80
2018-09-03T02:40:46.967Z,5.80
2018-09-03T02:43:15.560Z,6.50
2018-09-03T02:45:44.154Z,5.90
2018-09-03T02:48:12.743Z,5.33
2018-09-03T02:50:41.316Z,6.17
2018-09-03T02:53:09.932Z,6.10
2018-09-03T02:55:38.504Z,5.50
2018-09-03T02:58:07.138Z,5.53
2018-09-03T03:00:35.717Z,5.20
2018-09-03T03:03:04.312Z,5.50
2018-09-03T03:05:32.908Z,5.57
2018-09-03T03:08:01.521Z,5.80
2018-09-03T03:10:30.088Z,5.50
2018-09-03T03:12:58.699Z,5.63
2018-09-03T03:15:27.289Z,5.57
2018-09-03T03:17:55.890Z,5.50
2018-09-03T03:20:24.467Z,5.50
2018-09-03T03:22:53.079Z,6.10
2018-09-03T03:25:21.703Z,5.60
2018-09-03T03:27:50.287Z,5.97
2018-09-03T03:30:18.893Z,5.80
2018-09-03T03:32:47.475Z,5.73
2018-09-03T03:35:16.160Z,5.00
2018-09-03T03:37:48.686Z,5.97
2018-09-03T03:40:18.333Z,4.93
2018-09-03T03:42:46.934Z,5.17
2018-09-03T03:45:15.546Z,5.37
2018-09-03T03:47:44.139Z,5.13
2018-09-03T03:50:12.744Z,5.63
2018-09-03T03:52:41.377Z,5.80
2018-09-03T03:55:10.156Z,5.47
2018-09-03T03:57:38.685Z,5.23
2018-09-03T04:00:07.586Z,6.00
2018-09-03T04:02:36.169Z,5.70
2018-09-03T04:05:04.828Z,5.53
2018-09-03T04:07:33.404Z,5.60
2018-09-03T04:10:02.005Z,5.53
2018-09-03T04:12:30.582Z,5.13
2018-09-03T04:14:59.249Z,5.57
2018-09-03T04:17:27.842Z,5.50
2018-09-03T04:20:05.804Z,5.27
2018-09-03T04:22:34.784Z,5.50
2018-09-03T04:25:04.133Z,5.43
2018-09-03T04:27:32.716Z,5.97
2018-09-03T04:30:01.345Z,5.60
2018-09-03T04:32:29.930Z,5.20
2018-09-03T04:34:58.518Z,6.27
2018-09-03T04:37:27.131Z,5.70
2018-09-03T04:39:56.290Z,5.73
2018-09-03T04:42:24.861Z,5.90
2018-09-03T04:44:53.486Z,5.63
2018-09-03T04:47:22.070Z,6.00
2018-09-03T04:49:50.732Z,6.10
2018-09-03T04:52:19.443Z,6.23
2018-09-03T04:54:48.080Z,6.00
2018-09-03T04:57:16.684Z,6.20
2018-09-03T04:59:45.311Z,6.40
2018-09-03T05:02:13.973Z,6.27
2018-09-03T05:04:42.619Z,6.20
2018-09-03T05:07:11.191Z,6.47
2018-09-03T05:09:39.841Z,6.47
2018-09-03T05:12:08.430Z,6.80
2018-09-03T05:14:37.378Z,6.77
2018-09-03T05:17:06.366Z,7.17
2018-09-03T05:19:34.982Z,6.60
2018-09-03T05:22:03.561Z,6.63
2018-09-03T05:24:32.168Z,6.93
2018-09-03T05:27:00.789Z,7.23
2018-09-03T05:29:29.426Z,7.17
2018-09-03T05:31:58.011Z,7.03
2018-09-03T05:34:26.635Z,6.97
2018-09-03T05:36:55.204Z,7.23
2018-09-03T05:39:23.801Z,6.87
2018-09-03T05:41:52.385Z,7.67
2018-09-03T05:44:20.958Z,7.63
2018-09-03T05:46:49.563Z,6.83
2018-09-03T05:49:18.154Z,7.40
2018-09-03T05:51:46.772Z,7.00
2018-09-03T05:54:15.334Z,8.30
2018-09-03T05:56:43.929Z,7.40
2018-09-03T05:59:12.537Z,6.97
2018-09-03T06:01:41.172Z,7.20
2018-09-03T06:04:09.783Z,6.90
2018-09-03T06:06:38.386Z,7.20
2018-09-03T06:09:09.217Z,7.40
2018-09-03T06:11:37.877Z,7.13
2018-09-03T06:14:06.471Z,7.30
2018-09-03T06:16:35.119Z,7.70
2018-09-03T06:19:03.690Z,7.80
2018-09-03T06:21:32.296Z,7.10
2018-09-03T06:24:00.989Z,7.50
2018-09-03T06:26:29.613Z,7.87
2018-09-03T06:28:58.191Z,6.90
2018-09-03T06:31:26.807Z,7.27
2018-09-03T06:33:55.405Z,7.13
2018-09-03T06:36:24.022Z,6.90
2018-09-03T06:38:52.664Z,6.70
2018-09-03T06:41:21.326Z,6.67
2018-09-03T06:43:49.924Z,6.70
2018-09-03T06:46:19.017Z,6.87
2018-09-03T06:48:48.005Z,7.30
2018-09-03T06:51:16.625Z,6.50
2018-09-03T06:53:45.251Z,7.30
2018-09-03T06:56:13.844Z,7.17
2018-09-03T06:58:42.738Z,6.93
2018-09-03T07:01:11.537Z,6.97
2018-09-03T07:03:40.153Z,5.97
2018-09-03T07:06:08.770Z,6.53
2018-09-03T07:08:38.167Z,6.73
2018-09-03T07:11:07.170Z,6.20
2018-09-03T07:13:35.857Z,6.80
2018-09-03T07:16:04.477Z,6.67
2018-09-03T07:18:33.050Z,7.10
2018-09-03T07:21:01.657Z,6.97
2018-09-03T07:23:30.248Z,6.57
2018-09-03T07:25:58.854Z,6.53
2018-09-03T07:28:27.417Z,6.53
2018-09-03T07:30:56.320Z,7.00
2018-09-03T07:33:24.882Z,6.30
2018-09-03T07:35:53.518Z,7.23
2018-09-03T07:38:22.135Z,6.80
2018-09-03T07:40:50.700Z,6.77
2018-09-03T07:43:19.325Z,7.10
2018-09-03T07:45:47.892Z,7.50
2018-09-03T07:48:16.480Z,7.07
2018-09-03T07:50:45.038Z,7.17
2018-09-03T07:53:13.638Z,7.37
2018-09-03T07:55:42.209Z,7.47
2018-09-03T07:58:10.798Z,6.90
2018-09-03T08:00:39.381Z,7.17
2018-09-03T08:03:07.981Z,7.30
2018-09-03T08:05:36.568Z,7.37
2018-09-03T08:08:05.312Z,7.93
2018-09-03T08:10:33.861Z,7.57
2018-09-03T08:13:02.524Z,7.57
2018-09-03T08:15:31.066Z,7.23
2018-09-03T08:17:59.687Z,7.70
2018-09-03T08:20:28.249Z,7.70
2018-09-03T08:22:56.849Z,7.90
2018-09-03T08:25:25.650Z,7.80
2018-09-03T08:27:54.324Z,8.20
2018-09-03T08:30:22.902Z,7.40
2018-09-03T08:32:51.498Z,8.13
2018-09-03T08:35:20.050Z,8.47
2018-09-03T08:37:48.645Z,8.93
2018-09-03T08:40:17.301Z,8.20
2018-09-03T08:42:45.906Z,7.80
2018-09-03T08:45:14.526Z,8.30
2018-09-03T08:47:43.109Z,8.40
2018-09-03T08:50:11.698Z,8.07
2018-09-03T08:52:40.301Z,8.70
2018-09-03T08:55:08.881Z,9.40
2018-09-03T08:57:37.455Z,8.37
2018-09-03T09:00:06.433Z,7.60
2018-09-03T09:02:35.049Z,9.00
2018-09-03T09:05:03.759Z,8.63
2018-09-03T09:07:32.371Z,9.10
2018-09-03T09:10:00.987Z,9.00
2018-09-03T09:12:29.560Z,8.20
2018-09-03T09:14:58.125Z,8.63
2018-09-03T09:17:26.723Z,9.07
2018-09-03T09:19:55.312Z,9.40
2018-09-03T09:22:23.885Z,8.47
2018-09-03T09:24:52.536Z,8.93
2018-09-03T09:27:21.112Z,8.90
2018-09-03T09:29:49.672Z,8.90
2018-09-03T09:32:18.416Z,9.20
2018-09-03T09:34:47.265Z,9.20
2018-09-03T09:37:15.925Z,9.43
2018-09-03T09:39:45.017Z,8.23
2018-09-03T09:42:13.571Z,8.53
2018-09-03T09:44:42.174Z,9.13
2018-09-03T09:47:10.785Z,9.40
2018-09-03T09:49:39.420Z,9.03
2018-09-03T09:52:07.998Z,9.17
2018-09-03T09:54:36.589Z,9.43
2018-09-03T09:57:05.361Z,9.17
2018-09-03T09:59:34.012Z,9.33
2018-09-03T10:02:02.750Z,9.07
2018-09-03T10:04:31.374Z,9.03
2018-09-03T10:06:59.969Z,8.83
2018-09-03T10:09:28.579Z,9.00
2018-09-03T10:11:57.142Z,9.23
2018-09-03T10:14:25.745Z,9.20
2018-09-03T10:16:54.360Z,9.00
2018-09-03T10:19:22.953Z,9.23
2018-09-03T10:21:51.545Z,9.30
2018-09-03T10:24:20.198Z,8.93
2018-09-03T10:26:48.821Z,10.37
2018-09-03T10:29:17.465Z,9.30
2018-09-03T10:31:46.093Z,9.80
2018-09-03T10:34:14.681Z,9.93
2018-09-03T10:36:43.580Z,9.37
2018-09-03T10:39:12.205Z,9.63
2018-09-03T10:41:40.758Z,9.60
2018-09-03T10:44:09.437Z,9.70
2018-09-03T10:46:38.020Z,9.23
2018-09-03T10:49:06.625Z,10.13
2018-09-03T10:51:35.211Z,10.80
2018-09-03T10:54:03.835Z,10.60
2018-09-03T10:56:32.440Z,10.90
2018-09-03T10:59:01.053Z,10.17
2018-09-03T11:01:29.659Z,11.47
2018-09-03T11:03:58.262Z,10.87
2018-09-03T11:06:26.837Z,11.30
2018-09-03T11:08:55.444Z,11.23
2018-09-03T11:11:24.033Z,11.17
2018-09-03T11:13:52.630Z,11.07
2018-09-03T11:16:21.265Z,11.43
2018-09-03T11:18:49.861Z,11.13
2018-09-03T11:21:18.622Z,11.83
2018-09-03T11:23:47.091Z,11.30
2018-09-03T11:26:15.691Z,11.20
2018-09-03T11:28:44.383Z,11.60
2018-09-03T11:31:12.977Z,11.03
2018-09-03T11:33:41.588Z,11.30
2018-09-03T11:36:10.172Z,11.60
2018-09-03T11:38:38.781Z,11.20
2018-09-03T11:41:07.482Z,11.03
2018-09-03T11:43:36.070Z,11.57
2018-09-03T11:46:04.739Z,11.57
2018-09-03T11:48:33.315Z,11.57
2018-09-03T11:51:01.930Z,11.60
2018-09-03T11:53:30.562Z,11.30
2018-09-03T11:55:59.153Z,12.00
2018-09-03T11:58:27.791Z,10.93
2018-09-03T12:00:59.993Z,11.53
2018-09-03T12:03:28.600Z,11.90
2018-09-03T12:05:57.259Z,11.60
2018-09-03T12:08:25.836Z,12.73
2018-09-03T12:10:54.439Z,11.37
2018-09-03T12:13:23.014Z,11.27
2018-09-03T12:16:24.242Z,11.67
2018-09-03T12:18:54.684Z,11.70
2018-09-03T12:21:23.279Z,11.63
2018-09-03T12:23:51.853Z,11.20
2018-09-03T12:26:20.491Z,10.83
2018-09-03T12:28:49.186Z,11.37
2018-09-03T12:31:17.862Z,11.20
2018-09-03T12:33:47.367Z,10.30
2018-09-03T12:36:15.968Z,12.00
2018-09-03T12:38:44.533Z,11.90
2018-09-03T12:41:13.201Z,11.23
2018-09-03T12:43:41.836Z,12.50
2018-09-03T12:46:10.437Z,11.60
2018-09-03T12:48:39.015Z,11.60
2018-09-03T12:51:07.654Z,10.83
2018-09-03T12:53:36.238Z,11.20
2018-09-03T12:56:04.912Z,11.27
2018-09-03T12:58:33.586Z,11.30
2018-09-03T13:01:02.160Z,11.43
2018-09-03T13:03:30.722Z,11.40
2018-09-03T13:05:59.313Z,12.37
2018-09-03T13:08:27.869Z,11.77
2018-09-03T13:10:56.477Z,12.60
2018-09-03T13:13:25.056Z,13.83
2018-09-03T13:15:53.678Z,13.27
2018-09-03T13:18:22.256Z,11.83
2018-09-03T13:20:50.859Z,13.03
2018-09-03T13:23:19.439Z,12.70
2018-09-03T13:25:48.056Z,11.40
2018-09-03T13:28:16.620Z,11.93
2018-09-03T13:30:45.251Z,12.53
2018-09-03T13:33:13.803Z,13.30
2018-09-03T13:35:42.380Z,11.80
2018-09-03T13:38:10.948Z,11.77
2018-09-03T13:40:39.961Z,13.00
2018-09-03T13:43:08.597Z,12.50
2018-09-03T13:45:37.202Z,12.03
2018-09-03T13:48:05.847Z,11.80
2018-09-03T13:50:34.413Z,12.27
2018-09-03T13:53:02.988Z,11.57
2018-09-03T13:55:31.589Z,11.00
2018-09-03T13:58:00.142Z,10.60
2018-09-03T14:00:28.734Z,11.33
2018-09-03T14:02:57.313Z,11.03
2018-09-03T14:05:25.921Z,10.40
2018-09-03T14:07:54.500Z,11.17
2018-09-03T14:10:23.089Z,11.00
2018-09-03T14:12:51.649Z,11.27
2018-09-03T14:15:20.262Z,10.97
2018-09-03T14:17:48.808Z,11.43
2018-09-03T14:20:17.360Z,11.23
2018-09-03T14:22:45.961Z,10.63
2018-09-03T14:25:14.563Z,10.73
2018-09-03T14:27:43.254Z,10.93
2018-09-03T14:30:11.815Z,11.53
2018-09-03T14:32:40.432Z,10.70
2018-09-03T14:35:09.291Z,10.47
2018-09-03T14:37:37.885Z,10.93
2018-09-03T14:40:06.544Z,11.30
2018-09-03T14:42:35.165Z,11.10
2018-09-03T14:45:03.756Z,10.90
2018-09-03T14:47:32.324Z,11.47
2018-09-03T14:50:00.935Z,10.83
2018-09-03T14:52:29.565Z,10.80
2018-09-03T14:54:58.135Z,10.73
2018-09-03T14:57:26.744Z,10.97
2018-09-03T14:59:55.396Z,10.67
2018-09-03T15:02:24.037Z,11.27
2018-09-03T15:04:56.078Z,11.10
2018-09-03T15:07:24.682Z,10.63
2018-09-03T15:09:53.412Z,11.00
2018-09-03T15:12:22.014Z,10.77
2018-09-03T15:14:50.601Z,10.73
2018-09-03T15:17:19.219Z,11.07
2018-09-03T15:19:47.776Z,10.70
2018-09-03T15:22:16.370Z,11.17
2018-09-03T15:24:44.994Z,11.57
2018-09-03T15:27:13.585Z,11.60
2018-09-03T15:29:42.156Z,11.17
2018-09-03T15:32:10.782Z,11.23
2018-09-03T15:34:39.375Z,11.17
2018-09-03T15:37:07.980Z,10.70
2018-09-03T15:39:36.576Z,11.43
2018-09-03T15:42:05.251Z,10.77
2018-09-03T15:44:33.848Z,10.67
2018-09-03T15:47:02.554Z,11.90
2018-09-03T15:49:31.150Z,10.43
2018-09-03T15:51:59.814Z,10.80
2018-09-03T15:54:28.373Z,10.80
2018-09-03T15:56:56.975Z,10.90
2018-09-03T15:59:25.590Z,10.20
2018-09-03T16:01:54.190Z,11.10
2018-09-03T16:04:22.781Z,10.50
2018-09-03T16:06:51.376Z,11.03
2018-09-03T16:09:19.974Z,10.47
2018-09-03T16:11:48.704Z,10.20
2018-09-03T16:14:29.063Z,10.37
2018-09-03T16:16:57.630Z,10.40
2018-09-03T16:19:26.204Z,10.90
2018-09-03T16:21:54.791Z,10.53
2018-09-03T16:24:23.418Z,10.43
2018-09-03T16:26:52.017Z,10.60
2018-09-03T16:29:20.607Z,10.97
2018-09-03T16:31:49.210Z,10.60
2018-09-03T16:34:17.776Z,10.63
2018-09-03T16:36:46.369Z,10.70
2018-09-03T16:39:14.939Z,9.80
2018-09-03T16:41:43.540Z,10.03
2018-09-03T16:44:12.123Z,10.20
2018-09-03T16:46:40.722Z,9.77
2018-09-03T16:49:09.389Z,9.53
2018-09-03T16:51:37.918Z,11.23
2018-09-03T16:54:06.601Z,10.50
2018-09-03T16:56:35.188Z,10.30
2018-09-03T16:59:03.773Z,10.53
2018-09-03T17:01:32.470Z,10.20
2018-09-03T17:04:00.987Z,10.10
2018-09-03T17:06:29.545Z,10.60
2018-09-03T17:08:58.158Z,11.10
2018-09-03T17:11:26.795Z,11.17
2018-09-03T17:13:55.391Z,11.87
2018-09-03T17:16:23.960Z,11.10
2018-09-03T17:18:52.617Z,11.20
2018-09-03T17:21:21.200Z,11.00
2018-09-03T17:23:49.788Z,10.13
2018-09-03T17:26:18.396Z,10.60
2018-09-03T17:28:47.029Z,10.67
2018-09-03T17:31:15.607Z,8.83
2018-09-03T17:33:44.185Z,7.90
2018-09-03T17:36:12.761Z,7.93
2018-09-03T17:38:41.446Z,6.87
2018-09-03T17:41:10.014Z,6.93
2018-09-03T17:43:38.598Z,6.87
2018-09-03T17:46:07.171Z,6.57
2018-09-03T17:48:35.796Z,6.10
2018-09-03T17:51:04.426Z,6.17
2018-09-03T17:53:33.032Z,6.00
2018-09-03T17:56:01.601Z,5.87
2018-09-03T17:58:30.243Z,5.63
2018-09-03T18:00:58.866Z,5.50
2018-09-03T18:03:27.492Z,5.90
2018-09-03T18:05:56.109Z,5.33
2018-09-03T18:08:25.154Z,5.80
2018-09-03T18:10:53.715Z,5.50
2018-09-03T18:13:22.307Z,5.90
2018-09-03T18:15:50.875Z,5.50
2018-09-03T18:18:19.492Z,5.50
2018-09-03T18:20:48.083Z,5.70
2018-09-03T18:23:16.670Z,5.60
2018-09-03T18:25:45.277Z,6.00
2018-09-03T18:28:13.876Z,5.77
2018-09-03T18:30:42.513Z,5.10
2018-09-03T18:33:11.104Z,5.67
2018-09-03T18:35:39.697Z,5.40
2018-09-03T18:38:08.288Z,5.57
2018-09-03T18:40:36.887Z,6.10
2018-09-03T18:43:05.524Z,4.83
2018-09-03T18:45:34.114Z,5.70
2018-09-03T18:48:02.705Z,5.20
2018-09-03T18:50:31.290Z,5.80
2018-09-03T18:52:59.901Z,5.40
2018-09-03T18:55:28.505Z,5.50
2018-09-03T18:57:57.083Z,5.30
2018-09-03T19:00:25.776Z,5.10
2018-09-03T19:02:54.346Z,5.70
2018-09-03T19:05:22.953Z,5.10
2018-09-03T19:07:51.533Z,5.50
2018-09-03T19:10:20.134Z,4.93
2018-09-03T19:12:48.721Z,4.97
2018-09-03T19:15:17.329Z,5.40
2018-09-03T19:17:45.909Z,5.17
2018-09-03T19:20:14.525Z,4.73
2018-09-03T19:22:43.096Z,5.13
2018-09-03T19:25:11.706Z,5.17
2018-09-03T19:27:40.291Z,5.17
2018-09-03T19:30:09.009Z,5.27
2018-09-03T19:32:37.630Z,4.80
2018-09-03T19:35:06.247Z,5.00
2018-09-03T19:37:34.819Z,4.63
2018-09-03T19:40:03.480Z,4.60
2018-09-03T19:42:32.047Z,4.60
2018-09-03T19:45:00.710Z,4.27
2018-09-03T19:47:29.289Z,4.97
2018-09-03T19:49:57.886Z,5.10
2018-09-03T19:52:26.448Z,4.00
2018-09-03T19:54:55.044Z,4.30
2018-09-03T19:57:23.605Z,5.07
2018-09-03T19:59:52.237Z,5.00
2018-09-03T20:02:20.801Z,4.17
2018-09-03T20:04:49.398Z,4.67
2018-09-03T20:07:17.989Z,4.80
2018-09-03T20:09:46.613Z,4.60
2018-09-03T20:12:15.247Z,4.83
2018-09-03T20:14:43.959Z,4.87
2018-09-03T20:17:12.615Z,4.40
2018-09-03T20:19:41.177Z,4.73
2018-09-03T20:22:15.405Z,4.60
2018-09-03T20:24:44.087Z,4.87
2018-09-03T20:27:13.009Z,5.53
2018-09-03T20:29:41.789Z,4.63
2018-09-03T20:32:10.406Z,5.13
2018-09-03T20:34:39.194Z,5.03
2018-09-03T20:37:08.454Z,5.40
2018-09-03T20:39:37.189Z,5.47
2018-09-03T20:42:05.823Z,5.30
2018-09-03T20:44:34.552Z,4.80
2018-09-03T20:47:03.133Z,5.33
2018-09-03T20:49:31.756Z,4.97
2018-09-03T20:52:01.172Z,4.80
2018-09-03T20:54:29.756Z,4.60
2018-09-03T20:56:58.363Z,5.30
2018-09-03T20:59:26.982Z,4.90
2018-09-03T21:01:55.632Z,4.80
2018-09-03T21:04:24.225Z,5.10
2018-09-03T21:06:52.900Z,5.43
2018-09-03T21:09:21.529Z,5.43
2018-09-03T21:11:50.141Z,4.97
2018-09-03T21:14:18.729Z,5.17
2018-09-03T21:16:47.326Z,5.40
2018-09-03T21:19:15.922Z,6.00
2018-09-03T21:21:44.604Z,5.43
2018-09-03T21:24:13.160Z,5.57
2018-09-03T21:26:41.786Z,5.20
2018-09-03T21:29:10.422Z,5.57
2018-09-03T21:31:39.040Z,5.17
2018-09-03T21:34:07.647Z,5.60
2018-09-03T21:36:36.240Z,6.13
2018-09-03T21:39:05.080Z,5.60
2018-09-03T21:41:33.766Z,5.63
2018-09-03T21:44:02.816Z,5.20
2018-09-03T21:46:31.426Z,5.53
2018-09-03T21:49:00.019Z,5.30
2018-09-03T21:51:28.632Z,5.77
2018-09-03T21:53:57.205Z,5.23
2018-09-03T21:56:25.814Z,5.90
2018-09-03T21:58:54.438Z,5.93
2018-09-03T22:01:23.062Z,6.07
2018-09-03T22:03:51.646Z,5.50
2018-09-03T22:06:20.246Z,5.70
2018-09-03T22:08:49.221Z,6.07
2018-09-03T22:11:17.819Z,5.70
2018-09-03T22:13:46.397Z,5.83
2018-09-03T22:16:15.018Z,5.93
2018-09-03T22:18:43.615Z,5.87
2018-09-03T22:21:12.257Z,5.70
2018-09-03T22:23:40.852Z,6.07
2018-09-03T22:26:09.494Z,5.90
2018-09-03T22:28:38.074Z,5.67
2018-09-03T22:31:06.718Z,5.97
2018-09-03T22:33:35.282Z,5.80
2018-09-03T22:36:03.892Z,6.17
2018-09-03T22:38:32.499Z,5.93
2018-09-03T22:41:01.100Z,6.23
2018-09-03T22:43:29.679Z,5.90
2018-09-03T22:45:58.292Z,6.17
2018-09-03T22:48:26.900Z,6.23
2018-09-03T22:50:55.619Z,6.53
2018-09-03T22:53:24.222Z,6.07
2018-09-03T22:55:52.803Z,6.40
2018-09-03T22:58:21.401Z,6.53
2018-09-03T23:00:49.989Z,6.17
2018-09-03T23:03:18.589Z,6.40
2018-09-03T23:05:47.204Z,6.33
2018-09-03T23:08:15.787Z,7.37
2018-09-03T23:10:44.361Z,8.00
2018-09-03T23:13:12.964Z,7.50
2018-09-03T23:15:45.664Z,7.33
2018-09-03T23:18:14.289Z,7.23
2018-09-03T23:20:42.872Z,7.47
2018-09-03T23:23:11.485Z,8.20
2018-09-03T23:25:40.087Z,7.30
2018-09-03T23:28:08.685Z,8.40
2018-09-03T23:30:37.274Z,8.07
2018-09-03T23:33:06.053Z,8.70
2018-09-03T23:35:34.637Z,7.77
2018-09-03T23:38:03.238Z,8.57
2018-09-03T23:40:31.826Z,8.40
2018-09-03T23:43:00.476Z,8.23
2018-09-03T23:45:29.066Z,8.57
2018-09-03T23:47:57.723Z,8.33
2018-09-03T23:50:26.303Z,8.40
2018-09-03T23:52:55.174Z,9.13
2018-09-03T23:55:23.858Z,8.67
2018-09-03T23:57:52.471Z,8.77
